sensor_id;sensor_type;location;lat;lon;timestamp;P1;durP1;ratioP1;P2;durP2;ratioP2
15425;SDS011;7812;50.072;7.036;2023-02-28T00:00:11;2.70;;;1.50;;
15425;SDS011;7812;50.072;7.036;2023-02-28T00:02:41;1.73;;;1.33;;
15425;SDS011;7812;50.072;7.036;2023-02-28T00:05:09;2.53;;;1.30;;
15425;SDS011;7812;50.072;7.036;2023-02-28T00:07:36;2.00;;;1.60;;
15425;SDS011;7812;50.072;7.036;2023-02-28T00:10:03;1.40;;;1.30;;
15425;SDS011;7812;50.072;7.036;2023-02-28T00:12:32;2.40;;;1.47;;
15425;SDS011;7812;50.072;7.036;2023-02-28T00:14:59;2.70;;;1.80;;
15425;SDS011;7812;50.072;7.036;2023-02-28T00:17:24;1.90;;;1.47;;
15425;SDS011;7812;50.072;7.036;2023-02-28T00:19:50;1.70;;;1.60;;
15425;SDS011;7812;50.072;7.036;2023-02-28T00:22:17;2.07;;;1.80;;
15425;SDS011;7812;50.072;7.036;2023-02-28T00:24:45;1.93;;;1.50;;
15425;SDS011;7812;50.072;7.036;2023-02-28T00:27:12;1.60;;;1.50;;
15425;SDS011;7812;50.072;7.036;2023-02-28T00:29:39;2.40;;;1.57;;
15425;SDS011;7812;50.072;7.036;2023-02-28T00:32:04;2.73;;;1.73;;
15425;SDS011;7812;50.072;7.036;2023-02-28T00:34:32;2.27;;;1.67;;
15425;SDS011;7812;50.072;7.036;2023-02-28T00:37:06;2.07;;;1.67;;
15425;SDS011;7812;50.072;7.036;2023-02-28T00:39:34;2.40;;;1.53;;
15425;SDS011;7812;50.072;7.036;2023-02-28T00:42:01;2.43;;;1.47;;
15425;SDS011;7812;50.072;7.036;2023-02-28T00:44:27;1.70;;;1.37;;
15425;SDS011;7812;50.072;7.036;2023-02-28T00:46:53;2.10;;;1.90;;
15425;SDS011;7812;50.072;7.036;2023-02-28T00:49:19;2.43;;;1.57;;
15425;SDS011;7812;50.072;7.036;2023-02-28T00:51:45;1.60;;;1.50;;
15425;SDS011;7812;50.072;7.036;2023-02-28T00:54:11;1.63;;;1.40;;
15425;SDS011;7812;50.072;7.036;2023-02-28T00:56:37;1.40;;;1.30;;
15425;SDS011;7812;50.072;7.036;2023-02-28T00:59:03;1.20;;;1.10;;
15425;SDS011;7812;50.072;7.036;2023-02-28T01:01:28;1.60;;;1.50;;
15425;SDS011;7812;50.072;7.036;2023-02-28T01:03:54;1.57;;;1.30;;
15425;SDS011;7812;50.072;7.036;2023-02-28T01:06:20;2.27;;;1.63;;
15425;SDS011;7812;50.072;7.036;2023-02-28T01:08:45;2.40;;;1.30;;
15425;SDS011;7812;50.072;7.036;2023-02-28T01:11:11;2.07;;;1.57;;
15425;SDS011;7812;50.072;7.036;2023-02-28T01:13:40;3.87;;;1.90;;
15425;SDS011;7812;50.072;7.036;2023-02-28T01:16:06;1.73;;;1.50;;
15425;SDS011;7812;50.072;7.036;2023-02-28T01:18:32;2.07;;;1.50;;
15425;SDS011;7812;50.072;7.036;2023-02-28T01:20:58;2.60;;;1.90;;
15425;SDS011;7812;50.072;7.036;2023-02-28T01:23:27;3.03;;;1.90;;
15425;SDS011;7812;50.072;7.036;2023-02-28T01:25:53;1.70;;;1.50;;
15425;SDS011;7812;50.072;7.036;2023-02-28T01:28:19;1.87;;;1.43;;
15425;SDS011;7812;50.072;7.036;2023-02-28T01:30:48;1.90;;;1.67;;
15425;SDS011;7812;50.072;7.036;2023-02-28T01:33:15;1.87;;;1.70;;
15425;SDS011;7812;50.072;7.036;2023-02-28T01:35:41;2.40;;;1.70;;
15425;SDS011;7812;50.072;7.036;2023-02-28T01:38:07;1.50;;;1.40;;
15425;SDS011;7812;50.072;7.036;2023-02-28T01:40:32;3.67;;;1.50;;
15425;SDS011;7812;50.072;7.036;2023-02-28T01:42:58;2.73;;;1.80;;
15425;SDS011;7812;50.072;7.036;2023-02-28T01:45:30;1.97;;;1.50;;
15425;SDS011;7812;50.072;7.036;2023-02-28T01:48:00;2.50;;;1.87;;
15425;SDS011;7812;50.072;7.036;2023-02-28T01:50:29;1.63;;;1.50;;
15425;SDS011;7812;50.072;7.036;2023-02-28T01:52:59;1.83;;;1.53;;
15425;SDS011;7812;50.072;7.036;2023-02-28T01:55:29;1.93;;;1.70;;
15425;SDS011;7812;50.072;7.036;2023-02-28T01:57:57;1.70;;;1.60;;
15425;SDS011;7812;50.072;7.036;2023-02-28T02:00:26;3.20;;;1.70;;
15425;SDS011;7812;50.072;7.036;2023-02-28T02:02:54;2.83;;;1.80;;
15425;SDS011;7812;50.072;7.036;2023-02-28T02:05:28;2.97;;;1.67;;
15425;SDS011;7812;50.072;7.036;2023-02-28T02:08:03;1.87;;;1.70;;
15425;SDS011;7812;50.072;7.036;2023-02-28T02:24:23;2.20;;;1.90;;
15425;SDS011;7812;50.072;7.036;2023-02-28T02:43:56;3.77;;;2.23;;
15425;SDS011;7812;50.072;7.036;2023-02-28T02:46:42;2.03;;;1.80;;
15425;SDS011;7812;50.072;7.036;2023-02-28T02:49:13;2.43;;;1.93;;
15425;SDS011;7812;50.072;7.036;2023-02-28T02:51:44;2.90;;;2.20;;
15425;SDS011;7812;50.072;7.036;2023-02-28T02:57:08;2.97;;;2.10;;
15425;SDS011;7812;50.072;7.036;2023-02-28T02:59:38;3.63;;;2.17;;
15425;SDS011;7812;50.072;7.036;2023-02-28T03:02:06;2.80;;;2.10;;
15425;SDS011;7812;50.072;7.036;2023-02-28T03:04:37;3.53;;;2.83;;
15425;SDS011;7812;50.072;7.036;2023-02-28T03:07:06;2.20;;;2.00;;
15425;SDS011;7812;50.072;7.036;2023-02-28T03:09:33;2.53;;;1.80;;
15425;SDS011;7812;50.072;7.036;2023-02-28T03:12:00;2.20;;;2.00;;
15425;SDS011;7812;50.072;7.036;2023-02-28T03:17:12;3.30;;;2.50;;
15425;SDS011;7812;50.072;7.036;2023-02-28T03:19:52;2.70;;;2.23;;
15425;SDS011;7812;50.072;7.036;2023-02-28T03:36:00;2.90;;;2.63;;
15425;SDS011;7812;50.072;7.036;2023-02-28T03:38:56;2.60;;;2.40;;
15425;SDS011;7812;50.072;7.036;2023-02-28T03:41:31;5.53;;;2.73;;
15425;SDS011;7812;50.072;7.036;2023-02-28T03:44:08;4.53;;;3.00;;
15425;SDS011;7812;50.072;7.036;2023-02-28T03:46:42;4.40;;;3.87;;
15425;SDS011;7812;50.072;7.036;2023-02-28T03:49:38;4.97;;;4.47;;
15425;SDS011;7812;50.072;7.036;2023-02-28T03:52:08;5.03;;;3.37;;
15425;SDS011;7812;50.072;7.036;2023-02-28T03:54:36;4.30;;;3.90;;
15425;SDS011;7812;50.072;7.036;2023-02-28T03:57:27;6.13;;;3.97;;
15425;SDS011;7812;50.072;7.036;2023-02-28T04:00:28;3.97;;;2.83;;
15425;SDS011;7812;50.072;7.036;2023-02-28T04:03:12;3.47;;;3.17;;
15425;SDS011;7812;50.072;7.036;2023-02-28T04:05:51;4.43;;;3.27;;
15425;SDS011;7812;50.072;7.036;2023-02-28T04:08:19;4.60;;;3.70;;
15425;SDS011;7812;50.072;7.036;2023-02-28T04:10:48;4.93;;;4.30;;
15425;SDS011;7812;50.072;7.036;2023-02-28T04:13:21;4.73;;;3.77;;
15425;SDS011;7812;50.072;7.036;2023-02-28T04:15:52;6.27;;;4.17;;
15425;SDS011;7812;50.072;7.036;2023-02-28T04:18:18;5.80;;;4.33;;
15425;SDS011;7812;50.072;7.036;2023-02-28T04:20:44;5.53;;;3.87;;
15425;SDS011;7812;50.072;7.036;2023-02-28T04:23:09;3.73;;;3.43;;
15425;SDS011;7812;50.072;7.036;2023-02-28T04:25:35;4.73;;;4.03;;
15425;SDS011;7812;50.072;7.036;2023-02-28T04:28:00;5.80;;;4.47;;
15425;SDS011;7812;50.072;7.036;2023-02-28T04:30:26;4.83;;;3.43;;
15425;SDS011;7812;50.072;7.036;2023-02-28T04:32:52;4.77;;;3.60;;
15425;SDS011;7812;50.072;7.036;2023-02-28T04:35:17;5.47;;;4.33;;
15425;SDS011;7812;50.072;7.036;2023-02-28T04:37:43;4.70;;;3.80;;
15425;SDS011;7812;50.072;7.036;2023-02-28T04:40:09;4.13;;;3.70;;
15425;SDS011;7812;50.072;7.036;2023-02-28T04:42:35;7.03;;;3.60;;
15425;SDS011;7812;50.072;7.036;2023-02-28T04:45:03;4.27;;;3.60;;
15425;SDS011;7812;50.072;7.036;2023-02-28T04:47:29;4.70;;;4.20;;
15425;SDS011;7812;50.072;7.036;2023-02-28T04:49:55;4.30;;;3.83;;
15425;SDS011;7812;50.072;7.036;2023-02-28T04:52:21;3.97;;;3.53;;
15425;SDS011;7812;50.072;7.036;2023-02-28T04:54:47;4.13;;;3.70;;
15425;SDS011;7812;50.072;7.036;2023-02-28T04:57:12;3.60;;;3.30;;
15425;SDS011;7812;50.072;7.036;2023-02-28T04:59:39;4.27;;;3.87;;
15425;SDS011;7812;50.072;7.036;2023-02-28T05:02:04;4.70;;;4.00;;
15425;SDS011;7812;50.072;7.036;2023-02-28T05:04:32;5.17;;;4.47;;
15425;SDS011;7812;50.072;7.036;2023-02-28T05:06:59;4.80;;;3.87;;
15425;SDS011;7812;50.072;7.036;2023-02-28T05:09:26;4.47;;;4.00;;
15425;SDS011;7812;50.072;7.036;2023-02-28T05:11:52;5.77;;;4.50;;
15425;SDS011;7812;50.072;7.036;2023-02-28T05:14:17;5.80;;;4.47;;
15425;SDS011;7812;50.072;7.036;2023-02-28T05:16:43;4.00;;;3.60;;
15425;SDS011;7812;50.072;7.036;2023-02-28T05:19:08;4.63;;;3.60;;
15425;SDS011;7812;50.072;7.036;2023-02-28T05:21:41;3.83;;;3.50;;
15425;SDS011;7812;50.072;7.036;2023-02-28T05:24:14;4.70;;;3.80;;
15425;SDS011;7812;50.072;7.036;2023-02-28T05:26:40;4.50;;;4.10;;
15425;SDS011;7812;50.072;7.036;2023-02-28T05:29:07;4.60;;;4.07;;
15425;SDS011;7812;50.072;7.036;2023-02-28T05:31:34;4.00;;;3.60;;
15425;SDS011;7812;50.072;7.036;2023-02-28T05:34:00;5.07;;;4.00;;
15425;SDS011;7812;50.072;7.036;2023-02-28T05:36:26;5.77;;;3.97;;
15425;SDS011;7812;50.072;7.036;2023-02-28T05:38:52;4.43;;;3.90;;
15425;SDS011;7812;50.072;7.036;2023-02-28T05:41:18;6.33;;;4.20;;
15425;SDS011;7812;50.072;7.036;2023-02-28T05:43:45;4.33;;;3.70;;
15425;SDS011;7812;50.072;7.036;2023-02-28T05:46:11;6.13;;;3.70;;
15425;SDS011;7812;50.072;7.036;2023-02-28T05:48:38;5.03;;;4.00;;
15425;SDS011;7812;50.072;7.036;2023-02-28T05:51:06;5.13;;;4.23;;
15425;SDS011;7812;50.072;7.036;2023-02-28T05:53:32;5.07;;;3.97;;
15425;SDS011;7812;50.072;7.036;2023-02-28T05:55:58;4.20;;;3.77;;
15425;SDS011;7812;50.072;7.036;2023-02-28T05:58:24;5.23;;;4.47;;
15425;SDS011;7812;50.072;7.036;2023-02-28T06:00:59;4.80;;;3.70;;
15425;SDS011;7812;50.072;7.036;2023-02-28T06:03:25;3.73;;;3.40;;
15425;SDS011;7812;50.072;7.036;2023-02-28T06:05:51;4.37;;;3.97;;
15425;SDS011;7812;50.072;7.036;2023-02-28T06:08:17;8.90;;;6.03;;
15425;SDS011;7812;50.072;7.036;2023-02-28T06:10:43;10.23;;;7.87;;
15425;SDS011;7812;50.072;7.036;2023-02-28T06:13:09;7.00;;;5.90;;
15425;SDS011;7812;50.072;7.036;2023-02-28T06:15:37;5.30;;;4.80;;
15425;SDS011;7812;50.072;7.036;2023-02-28T06:18:03;8.77;;;7.47;;
15425;SDS011;7812;50.072;7.036;2023-02-28T06:20:29;6.77;;;4.20;;
15425;SDS011;7812;50.072;7.036;2023-02-28T06:22:55;7.50;;;4.90;;
15425;SDS011;7812;50.072;7.036;2023-02-28T06:25:23;5.27;;;4.50;;
15425;SDS011;7812;50.072;7.036;2023-02-28T06:27:50;5.90;;;4.40;;
15425;SDS011;7812;50.072;7.036;2023-02-28T06:30:16;5.50;;;4.53;;
15425;SDS011;7812;50.072;7.036;2023-02-28T06:32:42;8.03;;;6.30;;
15425;SDS011;7812;50.072;7.036;2023-02-28T06:35:08;4.93;;;4.43;;
15425;SDS011;7812;50.072;7.036;2023-02-28T06:37:34;6.37;;;4.00;;
15425;SDS011;7812;50.072;7.036;2023-02-28T06:39:59;7.30;;;6.20;;
15425;SDS011;7812;50.072;7.036;2023-02-28T06:42:25;5.07;;;4.40;;
15425;SDS011;7812;50.072;7.036;2023-02-28T06:44:53;4.27;;;3.70;;
15425;SDS011;7812;50.072;7.036;2023-02-28T06:47:20;4.77;;;4.27;;
15425;SDS011;7812;50.072;7.036;2023-02-28T06:49:46;6.90;;;4.87;;
15425;SDS011;7812;50.072;7.036;2023-02-28T06:52:12;6.30;;;4.90;;
15425;SDS011;7812;50.072;7.036;2023-02-28T06:54:37;5.57;;;3.87;;
15425;SDS011;7812;50.072;7.036;2023-02-28T06:57:03;12.77;;;11.57;;
15425;SDS011;7812;50.072;7.036;2023-02-28T06:59:29;5.27;;;4.77;;
15425;SDS011;7812;50.072;7.036;2023-02-28T07:01:55;4.30;;;3.30;;
15425;SDS011;7812;50.072;7.036;2023-02-28T07:04:21;3.97;;;3.57;;
15425;SDS011;7812;50.072;7.036;2023-02-28T07:06:47;3.70;;;2.90;;
15425;SDS011;7812;50.072;7.036;2023-02-28T07:09:12;5.43;;;3.53;;
15425;SDS011;7812;50.072;7.036;2023-02-28T07:11:39;5.87;;;3.70;;
15425;SDS011;7812;50.072;7.036;2023-02-28T07:14:05;3.83;;;3.33;;
15425;SDS011;7812;50.072;7.036;2023-02-28T07:16:32;3.60;;;3.13;;
15425;SDS011;7812;50.072;7.036;2023-02-28T07:18:58;3.23;;;2.87;;
15425;SDS011;7812;50.072;7.036;2023-02-28T07:21:23;3.37;;;3.03;;
15425;SDS011;7812;50.072;7.036;2023-02-28T07:23:49;4.00;;;3.00;;
15425;SDS011;7812;50.072;7.036;2023-02-28T07:26:16;2.70;;;2.50;;
15425;SDS011;7812;50.072;7.036;2023-02-28T07:28:43;3.20;;;2.87;;
15425;SDS011;7812;50.072;7.036;2023-02-28T07:31:10;3.33;;;3.03;;
15425;SDS011;7812;50.072;7.036;2023-02-28T07:33:38;3.20;;;2.90;;
15425;SDS011;7812;50.072;7.036;2023-02-28T07:36:05;3.83;;;2.70;;
15425;SDS011;7812;50.072;7.036;2023-02-28T07:38:37;3.07;;;2.43;;
15425;SDS011;7812;50.072;7.036;2023-02-28T07:41:02;2.73;;;2.53;;
15425;SDS011;7812;50.072;7.036;2023-02-28T07:43:33;3.17;;;2.87;;
15425;SDS011;7812;50.072;7.036;2023-02-28T07:46:06;3.43;;;3.13;;
15425;SDS011;7812;50.072;7.036;2023-02-28T07:48:34;2.83;;;2.53;;
15425;SDS011;7812;50.072;7.036;2023-02-28T07:51:00;2.60;;;2.40;;
15425;SDS011;7812;50.072;7.036;2023-02-28T07:53:26;4.17;;;2.70;;
15425;SDS011;7812;50.072;7.036;2023-02-28T07:55:59;3.50;;;2.80;;
15425;SDS011;7812;50.072;7.036;2023-02-28T07:58:26;4.47;;;3.30;;
15425;SDS011;7812;50.072;7.036;2023-02-28T08:00:52;3.17;;;2.80;;
15425;SDS011;7812;50.072;7.036;2023-02-28T08:03:19;3.07;;;2.80;;
15425;SDS011;7812;50.072;7.036;2023-02-28T08:05:46;3.33;;;2.83;;
15425;SDS011;7812;50.072;7.036;2023-02-28T08:08:12;4.47;;;2.73;;
15425;SDS011;7812;50.072;7.036;2023-02-28T08:10:39;3.77;;;3.07;;
15425;SDS011;7812;50.072;7.036;2023-02-28T08:13:05;3.10;;;2.60;;
15425;SDS011;7812;50.072;7.036;2023-02-28T08:15:30;3.63;;;3.20;;
15425;SDS011;7812;50.072;7.036;2023-02-28T08:17:56;3.40;;;3.10;;
15425;SDS011;7812;50.072;7.036;2023-02-28T08:20:22;3.27;;;2.70;;
15425;SDS011;7812;50.072;7.036;2023-02-28T08:22:49;4.73;;;3.43;;
15425;SDS011;7812;50.072;7.036;2023-02-28T08:25:15;3.33;;;3.03;;
15425;SDS011;7812;50.072;7.036;2023-02-28T08:27:41;3.33;;;2.67;;
15425;SDS011;7812;50.072;7.036;2023-02-28T08:30:07;3.07;;;2.77;;
15425;SDS011;7812;50.072;7.036;2023-02-28T08:32:39;3.40;;;3.10;;
15425;SDS011;7812;50.072;7.036;2023-02-28T08:35:06;3.93;;;2.93;;
15425;SDS011;7812;50.072;7.036;2023-02-28T08:37:32;3.10;;;2.77;;
15425;SDS011;7812;50.072;7.036;2023-02-28T08:39:57;3.10;;;2.80;;
15425;SDS011;7812;50.072;7.036;2023-02-28T08:42:23;3.37;;;3.07;;
15425;SDS011;7812;50.072;7.036;2023-02-28T08:44:49;3.17;;;2.80;;
15425;SDS011;7812;50.072;7.036;2023-02-28T08:47:15;3.30;;;2.70;;
15425;SDS011;7812;50.072;7.036;2023-02-28T08:49:41;3.40;;;3.03;;
15425;SDS011;7812;50.072;7.036;2023-02-28T08:52:07;3.57;;;3.00;;
15425;SDS011;7812;50.072;7.036;2023-02-28T08:54:32;2.80;;;2.57;;
15425;SDS011;7812;50.072;7.036;2023-02-28T08:56:59;3.40;;;3.00;;
15425;SDS011;7812;50.072;7.036;2023-02-28T08:59:25;4.10;;;3.13;;
15425;SDS011;7812;50.072;7.036;2023-02-28T09:01:51;3.50;;;2.93;;
15425;SDS011;7812;50.072;7.036;2023-02-28T09:04:16;3.33;;;3.00;;
15425;SDS011;7812;50.072;7.036;2023-02-28T09:06:42;3.80;;;3.03;;
15425;SDS011;7812;50.072;7.036;2023-02-28T09:09:09;3.63;;;2.87;;
15425;SDS011;7812;50.072;7.036;2023-02-28T09:11:35;4.10;;;2.77;;
15425;SDS011;7812;50.072;7.036;2023-02-28T09:14:01;3.67;;;2.80;;
15425;SDS011;7812;50.072;7.036;2023-02-28T09:16:28;3.43;;;2.83;;
15425;SDS011;7812;50.072;7.036;2023-02-28T09:18:55;5.50;;;4.77;;
15425;SDS011;7812;50.072;7.036;2023-02-28T09:21:21;3.57;;;3.10;;
15425;SDS011;7812;50.072;7.036;2023-02-28T09:23:48;2.83;;;2.40;;
15425;SDS011;7812;50.072;7.036;2023-02-28T09:26:22;3.00;;;2.60;;
15425;SDS011;7812;50.072;7.036;2023-02-28T09:28:49;3.60;;;3.13;;
15425;SDS011;7812;50.072;7.036;2023-02-28T09:31:17;3.17;;;2.87;;
15425;SDS011;7812;50.072;7.036;2023-02-28T09:33:46;2.80;;;2.50;;
15425;SDS011;7812;50.072;7.036;2023-02-28T09:36:15;3.17;;;2.67;;
15425;SDS011;7812;50.072;7.036;2023-02-28T09:38:41;2.80;;;2.60;;
15425;SDS011;7812;50.072;7.036;2023-02-28T09:41:17;3.33;;;2.73;;
15425;SDS011;7812;50.072;7.036;2023-02-28T09:44:13;3.50;;;3.20;;
15425;SDS011;7812;50.072;7.036;2023-02-28T09:46:46;3.40;;;3.10;;
15425;SDS011;7812;50.072;7.036;2023-02-28T09:49:19;4.07;;;3.00;;
15425;SDS011;7812;50.072;7.036;2023-02-28T09:54:31;3.57;;;2.73;;
15425;SDS011;7812;50.072;7.036;2023-02-28T09:57:04;2.70;;;2.50;;
15425;SDS011;7812;50.072;7.036;2023-02-28T09:59:48;3.03;;;2.73;;
15425;SDS011;7812;50.072;7.036;2023-02-28T10:05:29;5.63;;;5.07;;
15425;SDS011;7812;50.072;7.036;2023-02-28T10:08:19;2.90;;;2.70;;
15425;SDS011;7812;50.072;7.036;2023-02-28T10:10:57;3.10;;;2.47;;
15425;SDS011;7812;50.072;7.036;2023-02-28T10:16:07;4.03;;;3.20;;
15425;SDS011;7812;50.072;7.036;2023-02-28T10:21:21;3.50;;;2.90;;
15425;SDS011;7812;50.072;7.036;2023-02-28T10:23:55;3.93;;;3.60;;
15425;SDS011;7812;50.072;7.036;2023-02-28T10:26:42;3.30;;;2.97;;
15425;SDS011;7812;50.072;7.036;2023-02-28T10:29:10;3.67;;;3.27;;
15425;SDS011;7812;50.072;7.036;2023-02-28T10:31:36;3.70;;;3.00;;
15425;SDS011;7812;50.072;7.036;2023-02-28T10:34:03;3.40;;;3.10;;
15425;SDS011;7812;50.072;7.036;2023-02-28T10:36:31;3.53;;;3.07;;
15425;SDS011;7812;50.072;7.036;2023-02-28T10:38:57;3.03;;;2.73;;
15425;SDS011;7812;50.072;7.036;2023-02-28T10:41:31;3.50;;;3.20;;
15425;SDS011;7812;50.072;7.036;2023-02-28T10:44:12;3.43;;;2.90;;
15425;SDS011;7812;50.072;7.036;2023-02-28T10:46:48;2.90;;;2.53;;
15425;SDS011;7812;50.072;7.036;2023-02-28T10:51:52;3.40;;;3.00;;
15425;SDS011;7812;50.072;7.036;2023-02-28T10:54:23;4.77;;;3.00;;
15425;SDS011;7812;50.072;7.036;2023-02-28T10:57:16;3.70;;;3.03;;
15425;SDS011;7812;50.072;7.036;2023-02-28T10:59:44;3.40;;;2.70;;
15425;SDS011;7812;50.072;7.036;2023-02-28T11:02:32;3.33;;;2.70;;
15425;SDS011;7812;50.072;7.036;2023-02-28T11:05:01;3.90;;;3.13;;
15425;SDS011;7812;50.072;7.036;2023-02-28T11:07:27;3.27;;;2.93;;
15425;SDS011;7812;50.072;7.036;2023-02-28T11:09:54;3.77;;;2.80;;
15425;SDS011;7812;50.072;7.036;2023-02-28T11:12:26;3.73;;;2.97;;
15425;SDS011;7812;50.072;7.036;2023-02-28T11:15:00;3.33;;;2.90;;
15425;SDS011;7812;50.072;7.036;2023-02-28T11:17:30;3.00;;;2.70;;
15425;SDS011;7812;50.072;7.036;2023-02-28T11:19:58;3.80;;;2.90;;
15425;SDS011;7812;50.072;7.036;2023-02-28T11:22:32;3.43;;;3.13;;
15425;SDS011;7812;50.072;7.036;2023-02-28T11:25:08;5.20;;;3.27;;
15425;SDS011;7812;50.072;7.036;2023-02-28T11:27:51;3.20;;;2.90;;
15425;SDS011;7812;50.072;7.036;2023-02-28T11:30:38;3.13;;;2.73;;
15425;SDS011;7812;50.072;7.036;2023-02-28T11:35:52;3.47;;;3.17;;
15425;SDS011;7812;50.072;7.036;2023-02-28T11:38:23;3.73;;;2.87;;
15425;SDS011;7812;50.072;7.036;2023-02-28T11:49:02;2.80;;;2.50;;
15425;SDS011;7812;50.072;7.036;2023-02-28T11:51:42;3.30;;;2.73;;
15425;SDS011;7812;50.072;7.036;2023-02-28T11:57:06;3.87;;;2.50;;
15425;SDS011;7812;50.072;7.036;2023-02-28T11:59:48;3.13;;;2.37;;
15425;SDS011;7812;50.072;7.036;2023-02-28T12:02:45;3.00;;;2.70;;
15425;SDS011;7812;50.072;7.036;2023-02-28T12:05:24;3.13;;;2.50;;
15425;SDS011;7812;50.072;7.036;2023-02-28T12:07:58;3.07;;;2.77;;
15425;SDS011;7812;50.072;7.036;2023-02-28T12:13:29;2.70;;;2.50;;
15425;SDS011;7812;50.072;7.036;2023-02-28T12:16:12;3.73;;;2.50;;
15425;SDS011;7812;50.072;7.036;2023-02-28T12:26:57;3.33;;;2.50;;
15425;SDS011;7812;50.072;7.036;2023-02-28T12:37:37;2.77;;;2.57;;
15425;SDS011;7812;50.072;7.036;2023-02-28T12:40:06;2.93;;;2.67;;
15425;SDS011;7812;50.072;7.036;2023-02-28T12:42:42;4.13;;;2.83;;
15425;SDS011;7812;50.072;7.036;2023-02-28T12:45:43;2.93;;;2.63;;
15425;SDS011;7812;50.072;7.036;2023-02-28T12:48:39;2.93;;;2.63;;
15425;SDS011;7812;50.072;7.036;2023-02-28T12:51:08;2.80;;;2.60;;
15425;SDS011;7812;50.072;7.036;2023-02-28T12:53:45;3.97;;;2.83;;
15425;SDS011;7812;50.072;7.036;2023-02-28T12:57:00;3.60;;;2.80;;
15425;SDS011;7812;50.072;7.036;2023-02-28T13:10:42;3.07;;;2.70;;
15425;SDS011;7812;50.072;7.036;2023-02-28T13:13:16;3.80;;;2.80;;
15425;SDS011;7812;50.072;7.036;2023-02-28T13:15:56;3.00;;;2.70;;
15425;SDS011;7812;50.072;7.036;2023-02-28T13:18:32;3.63;;;2.93;;
15425;SDS011;7812;50.072;7.036;2023-02-28T13:21:05;5.17;;;3.10;;
15425;SDS011;7812;50.072;7.036;2023-02-28T13:23:37;3.60;;;3.30;;
15425;SDS011;7812;50.072;7.036;2023-02-28T13:26:12;3.53;;;3.00;;
15425;SDS011;7812;50.072;7.036;2023-02-28T13:31:24;2.97;;;2.67;;
15425;SDS011;7812;50.072;7.036;2023-02-28T13:46:29;3.77;;;3.30;;
15425;SDS011;7812;50.072;7.036;2023-02-28T13:48:55;4.63;;;3.50;;
15425;SDS011;7812;50.072;7.036;2023-02-28T13:54:16;3.70;;;3.40;;
15425;SDS011;7812;50.072;7.036;2023-02-28T14:02:20;3.60;;;3.00;;
15425;SDS011;7812;50.072;7.036;2023-02-28T14:05:00;3.40;;;3.10;;
15425;SDS011;7812;50.072;7.036;2023-02-28T14:07:28;9.43;;;3.60;;
15425;SDS011;7812;50.072;7.036;2023-02-28T14:10:04;3.93;;;3.40;;
15425;SDS011;7812;50.072;7.036;2023-02-28T14:17:59;4.60;;;4.13;;
15425;SDS011;7812;50.072;7.036;2023-02-28T14:20:29;6.50;;;5.37;;
15425;SDS011;7812;50.072;7.036;2023-02-28T14:31:00;7.20;;;4.83;;
15425;SDS011;7812;50.072;7.036;2023-02-28T14:38:25;4.40;;;4.00;;
15425;SDS011;7812;50.072;7.036;2023-02-28T14:40:54;4.00;;;3.60;;
15425;SDS011;7812;50.072;7.036;2023-02-28T14:43:27;4.37;;;3.97;;
15425;SDS011;7812;50.072;7.036;2023-02-28T14:45:54;4.40;;;3.70;;
15425;SDS011;7812;50.072;7.036;2023-02-28T14:48:23;3.57;;;3.13;;
15425;SDS011;7812;50.072;7.036;2023-02-28T14:53:43;4.53;;;4.13;;
15425;SDS011;7812;50.072;7.036;2023-02-28T14:56:24;3.80;;;3.40;;
15425;SDS011;7812;50.072;7.036;2023-02-28T14:58:56;4.70;;;4.20;;
15425;SDS011;7812;50.072;7.036;2023-02-28T15:01:23;3.77;;;3.40;;
15425;SDS011;7812;50.072;7.036;2023-02-28T15:03:56;4.17;;;3.57;;
15425;SDS011;7812;50.072;7.036;2023-02-28T15:06:24;4.70;;;3.17;;
15425;SDS011;7812;50.072;7.036;2023-02-28T15:09:06;4.37;;;3.40;;
15425;SDS011;7812;50.072;7.036;2023-02-28T15:11:33;4.53;;;3.67;;
15425;SDS011;7812;50.072;7.036;2023-02-28T15:14:00;3.77;;;3.10;;
15425;SDS011;7812;50.072;7.036;2023-02-28T15:16:33;3.83;;;3.43;;
15425;SDS011;7812;50.072;7.036;2023-02-28T15:21:44;4.60;;;3.83;;
15425;SDS011;7812;50.072;7.036;2023-02-28T15:24:20;3.93;;;3.53;;
15425;SDS011;7812;50.072;7.036;2023-02-28T15:27:09;4.07;;;3.67;;
15425;SDS011;7812;50.072;7.036;2023-02-28T15:29:45;4.60;;;3.80;;
15425;SDS011;7812;50.072;7.036;2023-02-28T15:32:35;3.77;;;3.47;;
15425;SDS011;7812;50.072;7.036;2023-02-28T15:37:50;4.67;;;4.17;;
15425;SDS011;7812;50.072;7.036;2023-02-28T15:40:30;3.67;;;3.33;;
15425;SDS011;7812;50.072;7.036;2023-02-28T15:43:00;3.77;;;3.47;;
15425;SDS011;7812;50.072;7.036;2023-02-28T15:48:22;5.83;;;3.60;;
15425;SDS011;7812;50.072;7.036;2023-02-28T15:51:01;4.77;;;3.90;;
15425;SDS011;7812;50.072;7.036;2023-02-28T15:53:37;4.20;;;3.47;;
15425;SDS011;7812;50.072;7.036;2023-02-28T15:56:18;4.70;;;3.80;;
15425;SDS011;7812;50.072;7.036;2023-02-28T15:58:48;4.27;;;3.87;;
15425;SDS011;7812;50.072;7.036;2023-02-28T16:01:23;11.57;;;8.10;;
15425;SDS011;7812;50.072;7.036;2023-02-28T16:03:57;4.27;;;3.80;;
15425;SDS011;7812;50.072;7.036;2023-02-28T16:08:58;4.27;;;3.83;;
15425;SDS011;7812;50.072;7.036;2023-02-28T16:11:24;5.33;;;4.30;;
15425;SDS011;7812;50.072;7.036;2023-02-28T16:13:51;5.60;;;4.03;;
15425;SDS011;7812;50.072;7.036;2023-02-28T16:16:20;4.87;;;4.17;;
15425;SDS011;7812;50.072;7.036;2023-02-28T16:18:47;4.90;;;4.10;;
15425;SDS011;7812;50.072;7.036;2023-02-28T16:21:13;5.43;;;4.03;;
15425;SDS011;7812;50.072;7.036;2023-02-28T16:23:39;6.17;;;3.87;;
15425;SDS011;7812;50.072;7.036;2023-02-28T16:26:05;4.77;;;4.00;;
15425;SDS011;7812;50.072;7.036;2023-02-28T16:28:32;4.30;;;3.90;;
15425;SDS011;7812;50.072;7.036;2023-02-28T16:31:00;4.53;;;3.80;;
15425;SDS011;7812;50.072;7.036;2023-02-28T16:33:30;4.10;;;3.70;;
15425;SDS011;7812;50.072;7.036;2023-02-28T16:35:56;6.07;;;4.30;;
15425;SDS011;7812;50.072;7.036;2023-02-28T16:38:22;4.57;;;4.17;;
15425;SDS011;7812;50.072;7.036;2023-02-28T16:40:50;4.90;;;3.80;;
15425;SDS011;7812;50.072;7.036;2023-02-28T16:43:20;4.40;;;3.77;;
15425;SDS011;7812;50.072;7.036;2023-02-28T16:45:49;4.43;;;4.03;;
15425;SDS011;7812;50.072;7.036;2023-02-28T16:48:20;4.53;;;3.87;;
15425;SDS011;7812;50.072;7.036;2023-02-28T16:50:46;4.93;;;4.13;;
15425;SDS011;7812;50.072;7.036;2023-02-28T16:53:11;5.77;;;4.90;;
15425;SDS011;7812;50.072;7.036;2023-02-28T16:55:40;5.43;;;3.73;;
15425;SDS011;7812;50.072;7.036;2023-02-28T16:58:05;6.23;;;4.13;;
15425;SDS011;7812;50.072;7.036;2023-02-28T17:00:31;5.07;;;3.77;;
15425;SDS011;7812;50.072;7.036;2023-02-28T17:02:59;5.40;;;4.17;;
15425;SDS011;7812;50.072;7.036;2023-02-28T17:05:25;4.70;;;3.60;;
15425;SDS011;7812;50.072;7.036;2023-02-28T17:07:53;4.37;;;3.83;;
15425;SDS011;7812;50.072;7.036;2023-02-28T17:10:20;4.37;;;3.53;;
15425;SDS011;7812;50.072;7.036;2023-02-28T17:12:48;4.83;;;3.80;;
15425;SDS011;7812;50.072;7.036;2023-02-28T17:15:14;5.00;;;3.73;;
15425;SDS011;7812;50.072;7.036;2023-02-28T17:17:43;4.77;;;3.87;;
15425;SDS011;7812;50.072;7.036;2023-02-28T17:20:14;4.23;;;3.83;;
15425;SDS011;7812;50.072;7.036;2023-02-28T17:22:47;5.47;;;4.00;;
15425;SDS011;7812;50.072;7.036;2023-02-28T17:25:13;4.83;;;3.97;;
15425;SDS011;7812;50.072;7.036;2023-02-28T17:27:39;4.77;;;3.70;;
15425;SDS011;7812;50.072;7.036;2023-02-28T17:30:26;6.03;;;3.83;;
15425;SDS011;7812;50.072;7.036;2023-02-28T17:32:55;4.30;;;3.67;;
15425;SDS011;7812;50.072;7.036;2023-02-28T17:35:21;4.80;;;3.70;;
15425;SDS011;7812;50.072;7.036;2023-02-28T17:37:48;4.30;;;3.90;;
15425;SDS011;7812;50.072;7.036;2023-02-28T17:40:20;6.13;;;3.70;;
15425;SDS011;7812;50.072;7.036;2023-02-28T17:42:47;3.70;;;3.30;;
15425;SDS011;7812;50.072;7.036;2023-02-28T17:45:14;4.80;;;4.07;;
15425;SDS011;7812;50.072;7.036;2023-02-28T17:47:41;4.77;;;3.60;;
15425;SDS011;7812;50.072;7.036;2023-02-28T17:50:12;3.97;;;3.57;;
15425;SDS011;7812;50.072;7.036;2023-02-28T17:52:40;3.93;;;3.47;;
15425;SDS011;7812;50.072;7.036;2023-02-28T17:55:06;5.73;;;3.93;;
15425;SDS011;7812;50.072;7.036;2023-02-28T17:57:33;4.57;;;3.53;;
15425;SDS011;7812;50.072;7.036;2023-02-28T17:59:59;5.53;;;4.57;;